createdAt,value
2022-11-29T00:01:35.628Z,9.30
2022-11-29T00:04:03.941Z,9.20
2022-11-29T00:06:33.457Z,9.20
2022-11-29T00:09:06.769Z,9.20
2022-11-29T00:11:54.365Z,9.20
2022-11-29T00:14:23.238Z,9.20
2022-11-29T00:16:53.913Z,9.20
2022-11-29T00:19:22.494Z,9.20
2022-11-29T00:21:50.419Z,9.20
2022-11-29T00:24:18.824Z,9.20
2022-11-29T00:26:46.686Z,9.10
2022-11-29T00:29:14.624Z,9.10
2022-11-29T00:31:42.749Z,9.20
2022-11-29T00:34:13.310Z,9.10
2022-11-29T00:36:41.799Z,9.20
2022-11-29T00:39:11.716Z,9.10
2022-11-29T00:41:40.039Z,9.10
2022-11-29T00:44:08.127Z,9.10
2022-11-29T00:46:35.977Z,9.20
2022-11-29T00:49:03.913Z,9.20
2022-11-29T00:51:33.127Z,9.30
2022-11-29T00:54:00.963Z,9.30
2022-11-29T00:56:28.807Z,9.20
2022-11-29T00:58:56.652Z,9.20
2022-11-29T01:01:24.495Z,9.30
2022-11-29T01:03:52.473Z,9.20
2022-11-29T01:06:20.589Z,9.20
2022-11-29T01:08:50.621Z,9.20
2022-11-29T01:11:20.929Z,9.30
2022-11-29T01:13:49.840Z,9.20
2022-11-29T01:16:18.122Z,9.20
2022-11-29T01:18:46.005Z,9.20
2022-11-29T01:21:15.607Z,9.20
2022-11-29T01:23:44.787Z,9.20
2022-11-29T01:26:16.088Z,9.30
2022-11-29T01:28:46.274Z,9.20
2022-11-29T01:31:16.078Z,9.20
2022-11-29T01:33:44.160Z,9.30
2022-11-29T01:36:13.292Z,9.20
2022-11-29T01:38:42.301Z,9.30
2022-11-29T01:41:14.931Z,9.20
2022-11-29T01:44:04.010Z,9.30
2022-11-29T01:46:33.304Z,9.30
2022-11-29T01:49:04.875Z,9.30
2022-11-29T01:51:35.357Z,9.30
2022-11-29T01:54:03.799Z,9.30
2022-11-29T01:56:35.570Z,9.30
2022-11-29T01:59:06.667Z,9.30
2022-11-29T02:01:34.892Z,9.30
2022-11-29T02:04:03.154Z,9.30
2022-11-29T02:06:31.662Z,9.30
2022-11-29T02:08:59.658Z,9.40
2022-11-29T02:12:05.321Z,9.40
2022-11-29T02:14:48.489Z,9.40
2022-11-29T02:17:25.699Z,9.40
2022-11-29T02:20:31.533Z,9.30
2022-11-29T02:23:05.931Z,9.30
2022-11-29T02:25:48.065Z,9.30
2022-11-29T02:28:42.068Z,9.20
2022-11-29T02:31:39.937Z,9.20
2022-11-29T02:34:24.838Z,9.10
2022-11-29T02:37:11.514Z,9.10
2022-11-29T02:40:01.620Z,9.00
2022-11-29T02:43:15.589Z,9.00
2022-11-29T02:45:51.331Z,9.20
2022-11-29T02:48:34.381Z,9.20
2022-11-29T02:51:10.738Z,9.20
2022-11-29T02:53:43.282Z,9.20
2022-11-29T02:56:17.986Z,9.10
2022-11-29T02:58:52.134Z,9.20
2022-11-29T03:01:26.761Z,9.20
2022-11-29T03:04:01.918Z,9.10
2022-11-29T03:06:40.363Z,9.10
2022-11-29T03:09:17.679Z,9.10
2022-11-29T03:11:51.928Z,9.10
2022-11-29T03:14:25.900Z,9.20
2022-11-29T03:17:04.499Z,9.20
2022-11-29T03:19:51.910Z,9.20
2022-11-29T03:22:32.552Z,9.20
2022-11-29T03:25:07.099Z,9.10
2022-11-29T03:27:41.845Z,9.10
2022-11-29T03:30:11.888Z,9.00
2022-11-29T03:32:49.039Z,9.10
2022-11-29T03:35:25.154Z,9.10
2022-11-29T03:38:00.577Z,9.00
2022-11-29T03:40:34.614Z,9.00
2022-11-29T03:43:07.287Z,9.10
2022-11-29T03:45:40.341Z,9.10
2022-11-29T03:48:13.416Z,9.10
2022-11-29T03:50:46.075Z,9.10
2022-11-29T03:53:21.552Z,9.10
2022-11-29T03:55:54.539Z,9.10
2022-11-29T03:58:37.373Z,9.10
2022-11-29T04:01:29.698Z,9.10
2022-11-29T04:04:24.011Z,9.10
2022-11-29T04:07:06.865Z,9.10
2022-11-29T04:09:58.299Z,9.10
2022-11-29T04:13:01.846Z,9.10
2022-11-29T04:16:08.191Z,9.20
2022-11-29T04:19:13.859Z,9.20
2022-11-29T04:21:55.144Z,9.00
2022-11-29T04:25:04.788Z,9.10
2022-11-29T04:28:05.899Z,9.10
2022-11-29T04:30:40.785Z,9.10
2022-11-29T04:33:44.265Z,9.10
2022-11-29T04:36:54.412Z,9.10
2022-11-29T04:39:38.532Z,9.10
2022-11-29T04:42:36.972Z,9.00
2022-11-29T04:45:40.553Z,9.10
2022-11-29T04:48:24.981Z,9.10
2022-11-29T04:51:03.598Z,9.10
2022-11-29T04:53:50.650Z,9.20
2022-11-29T04:56:29.927Z,9.10
2022-11-29T04:59:05.637Z,9.00
2022-11-29T05:01:42.322Z,9.00
2022-11-29T05:04:18.534Z,9.10
2022-11-29T05:06:59.913Z,9.10
2022-11-29T05:09:38.047Z,9.10
2022-11-29T05:12:16.490Z,9.10
2022-11-29T05:15:01.878Z,9.10
2022-11-29T05:17:39.389Z,9.10
2022-11-29T05:20:22.500Z,9.10
2022-11-29T05:23:06.789Z,9.10
2022-11-29T05:25:46.311Z,9.10
2022-11-29T05:28:21.419Z,9.20
2022-11-29T05:31:13.976Z,9.10
2022-11-29T05:34:06.675Z,9.20
2022-11-29T05:36:40.450Z,9.20
2022-11-29T05:39:22.424Z,9.20
2022-11-29T05:42:05.952Z,9.20
2022-11-29T05:44:38.156Z,9.20
2022-11-29T05:47:10.657Z,9.20
2022-11-29T05:49:44.453Z,9.20
2022-11-29T05:52:37.667Z,9.20
2022-11-29T05:55:19.344Z,9.20
2022-11-29T05:57:54.543Z,9.20
2022-11-29T06:00:23.723Z,9.10
2022-11-29T06:03:03.597Z,9.20
2022-11-29T06:05:38.284Z,9.20
2022-11-29T06:08:14.188Z,9.30
2022-11-29T06:10:57.597Z,9.10
2022-11-29T06:13:37.962Z,8.90
2022-11-29T06:16:38.897Z,8.70
2022-11-29T06:19:38.421Z,8.50
2022-11-29T06:22:31.744Z,8.60
2022-11-29T06:25:17.902Z,8.80
2022-11-29T06:28:05.314Z,8.90
2022-11-29T06:30:43.454Z,9.00
2022-11-29T06:33:22.310Z,9.00
2022-11-29T06:36:00.566Z,9.00
2022-11-29T06:38:30.529Z,9.10
2022-11-29T06:41:02.193Z,9.10
2022-11-29T06:43:30.938Z,9.00
2022-11-29T06:46:05.773Z,9.00
2022-11-29T06:48:39.956Z,9.00
2022-11-29T06:51:17.229Z,9.00
2022-11-29T06:53:52.544Z,9.00
2022-11-29T06:56:26.959Z,9.00
2022-11-29T06:59:03.712Z,9.00
2022-11-29T07:01:39.752Z,9.00
2022-11-29T07:04:45.426Z,9.00
2022-11-29T07:07:18.921Z,9.00
2022-11-29T07:09:49.265Z,9.00
2022-11-29T07:12:17.766Z,9.00
2022-11-29T07:14:46.957Z,8.90
2022-11-29T07:17:25.825Z,8.80
2022-11-29T07:20:04.486Z,8.80
2022-11-29T07:22:52.620Z,8.90
2022-11-29T07:25:30.559Z,8.80
2022-11-29T07:28:06.170Z,8.80
2022-11-29T07:30:40.778Z,8.90
2022-11-29T07:33:15.280Z,8.90
2022-11-29T07:35:49.534Z,8.90
2022-11-29T07:38:36.472Z,8.90
2022-11-29T07:41:13.088Z,8.90
2022-11-29T07:43:51.603Z,8.90
2022-11-29T07:46:19.552Z,8.80
2022-11-29T07:48:47.444Z,8.80
2022-11-29T07:51:15.298Z,8.70
2022-11-29T07:53:45.586Z,8.60
2022-11-29T07:56:14.759Z,8.50
2022-11-29T07:58:42.718Z,8.30
2022-11-29T08:01:10.684Z,8.50
2022-11-29T08:03:38.609Z,8.60
2022-11-29T08:06:06.575Z,8.70
2022-11-29T08:08:37.777Z,8.80
2022-11-29T08:11:13.839Z,8.80
2022-11-29T08:13:41.652Z,8.90
2022-11-29T08:16:09.718Z,8.90
2022-11-29T08:18:37.707Z,8.80
2022-11-29T08:21:07.309Z,8.90
2022-11-29T08:23:35.106Z,8.80
2022-11-29T08:26:03.606Z,8.80
2022-11-29T08:28:32.765Z,8.50
2022-11-29T08:31:05.245Z,8.60
2022-11-29T08:33:35.361Z,8.80
2022-11-29T08:36:06.814Z,8.80
2022-11-29T08:38:34.840Z,9.00
2022-11-29T08:41:03.191Z,9.00
2022-11-29T08:43:32.913Z,9.00
2022-11-29T08:46:00.799Z,8.80
2022-11-29T08:48:28.881Z,8.90
2022-11-29T08:50:57.897Z,8.90
2022-11-29T08:53:43.397Z,8.90
2022-11-29T08:56:49.808Z,9.00
2022-11-29T08:59:02.099Z,9.10
2022-11-29T09:01:30.069Z,9.10
2022-11-29T09:04:02.810Z,9.10
2022-11-29T09:06:33.062Z,9.10
2022-11-29T09:09:01.909Z,9.10
2022-11-29T09:11:31.869Z,9.10
2022-11-29T09:14:02.595Z,9.20
2022-11-29T09:16:33.329Z,9.20
2022-11-29T09:19:01.283Z,9.20
2022-11-29T09:21:31.795Z,9.20
2022-11-29T09:24:00.958Z,9.20
2022-11-29T09:26:30.383Z,9.20
2022-11-29T09:29:01.080Z,9.20
2022-11-29T09:31:31.244Z,9.20
2022-11-29T09:33:59.162Z,9.30
2022-11-29T09:36:29.252Z,9.30
2022-11-29T09:38:57.342Z,9.30
2022-11-29T09:41:54.493Z,9.40
2022-11-29T09:44:36.340Z,9.40
2022-11-29T09:47:19.753Z,9.30
2022-11-29T09:50:04.624Z,9.20
2022-11-29T09:52:43.533Z,9.00
2022-11-29T09:55:35.114Z,9.20
2022-11-29T09:58:06.787Z,9.30
2022-11-29T10:00:39.211Z,9.40
2022-11-29T10:03:15.970Z,9.50
2022-11-29T10:05:47.585Z,9.40
2022-11-29T10:08:19.491Z,9.50
2022-11-29T10:10:49.288Z,9.30
2022-11-29T10:13:23.206Z,9.20
2022-11-29T10:15:55.448Z,9.30
2022-11-29T10:18:29.650Z,9.30
2022-11-29T10:21:00.767Z,9.20
2022-11-29T10:23:33.852Z,9.40
2022-11-29T10:26:02.005Z,9.50
2022-11-29T10:28:32.903Z,9.40
2022-11-29T10:31:09.380Z,9.50
2022-11-29T10:33:42.028Z,9.40
2022-11-29T10:36:19.291Z,9.40
2022-11-29T10:38:48.507Z,9.40
2022-11-29T10:41:21.676Z,9.50
2022-11-29T10:43:51.237Z,9.60
2022-11-29T10:46:28.241Z,9.60
2022-11-29T10:48:58.659Z,9.40
2022-11-29T10:51:26.892Z,9.10
2022-11-29T10:53:55.489Z,9.20
2022-11-29T10:56:29.256Z,9.10
2022-11-29T10:59:03.151Z,9.30
2022-11-29T11:01:32.579Z,9.40
2022-11-29T11:04:07.491Z,9.40
2022-11-29T11:06:46.284Z,9.50
2022-11-29T11:09:21.854Z,9.30
2022-11-29T11:11:54.366Z,9.50
2022-11-29T11:14:26.145Z,9.60
2022-11-29T11:16:54.547Z,9.80
2022-11-29T11:19:32.868Z,9.80
2022-11-29T11:22:02.143Z,9.60
2022-11-29T11:24:31.921Z,9.80
2022-11-29T11:27:01.386Z,9.80
2022-11-29T11:29:36.163Z,9.70
2022-11-29T11:32:04.517Z,9.30
2022-11-29T11:34:35.398Z,9.30
2022-11-29T11:37:20.678Z,9.20
2022-11-29T11:39:50.719Z,9.00
2022-11-29T11:42:39.314Z,9.00
2022-11-29T11:45:26.521Z,9.10
2022-11-29T11:47:57.118Z,9.20
2022-11-29T11:50:30.368Z,9.10
2022-11-29T11:53:00.846Z,9.00
2022-11-29T11:55:35.996Z,9.10
2022-11-29T11:58:16.731Z,9.10
2022-11-29T12:01:04.657Z,9.30
2022-11-29T12:03:41.445Z,9.30
2022-11-29T12:06:33.591Z,9.20
2022-11-29T12:09:06.016Z,9.00
2022-11-29T12:11:44.078Z,9.00
2022-11-29T12:14:26.785Z,9.20
2022-11-29T12:17:06.111Z,9.10
2022-11-29T12:19:41.842Z,8.80
2022-11-29T12:22:19.740Z,8.80
2022-11-29T12:24:56.327Z,8.70
2022-11-29T12:27:24.208Z,8.80
2022-11-29T12:29:52.320Z,8.80
2022-11-29T12:32:35.383Z,8.90
2022-11-29T12:35:35.040Z,9.00
2022-11-29T12:38:13.749Z,9.10
2022-11-29T12:40:49.051Z,9.20
2022-11-29T12:43:27.397Z,9.40
2022-11-29T12:46:01.384Z,9.60
2022-11-29T12:48:36.158Z,9.60
2022-11-29T12:51:12.059Z,9.70
2022-11-29T12:53:54.803Z,9.60
2022-11-29T12:56:28.174Z,9.60
2022-11-29T12:59:12.168Z,9.70
2022-11-29T13:01:56.105Z,9.80
2022-11-29T13:04:30.614Z,9.60
2022-11-29T13:07:07.560Z,9.50
2022-11-29T13:10:01.313Z,9.60
2022-11-29T13:12:37.966Z,9.40
2022-11-29T13:15:11.931Z,9.10
2022-11-29T13:17:45.113Z,9.30
2022-11-29T13:20:29.604Z,9.40
2022-11-29T13:23:01.825Z,9.40
2022-11-29T13:25:36.889Z,9.50
2022-11-29T13:28:07.952Z,9.70
2022-11-29T13:30:36.841Z,9.60
2022-11-29T13:33:13.248Z,9.70
2022-11-29T13:35:48.074Z,9.60
2022-11-29T13:38:23.210Z,9.60
2022-11-29T13:40:59.663Z,9.50
2022-11-29T13:43:36.122Z,9.50
2022-11-29T13:46:15.689Z,9.60
2022-11-29T13:48:48.950Z,9.60
2022-11-29T13:51:26.485Z,9.60
2022-11-29T13:53:55.530Z,9.60
2022-11-29T13:56:32.805Z,9.70
2022-11-29T13:59:01.885Z,9.60
2022-11-29T14:01:30.002Z,9.70
2022-11-29T14:04:07.718Z,9.60
2022-11-29T14:06:37.514Z,9.50
2022-11-29T14:09:27.093Z,9.60
2022-11-29T14:12:02.957Z,9.70
2022-11-29T14:14:35.215Z,9.70
2022-11-29T14:17:04.986Z,9.60
2022-11-29T14:19:34.775Z,9.50
2022-11-29T14:22:21.316Z,9.50
2022-11-29T14:25:49.137Z,9.50
2022-11-29T14:28:31.109Z,9.30
2022-11-29T14:31:01.373Z,9.40
2022-11-29T14:34:04.146Z,9.50
2022-11-29T14:36:54.735Z,9.70
2022-11-29T14:39:33.899Z,9.60
2022-11-29T14:42:16.943Z,9.60
2022-11-29T14:44:49.479Z,9.70
2022-11-29T14:47:29.871Z,9.70
2022-11-29T14:50:00.359Z,9.60
2022-11-29T14:52:31.509Z,9.50
2022-11-29T14:55:06.425Z,9.40
2022-11-29T14:58:14.515Z,9.40
2022-11-29T15:01:11.579Z,9.50
2022-11-29T15:03:50.500Z,9.50
2022-11-29T15:06:25.791Z,9.40
2022-11-29T15:09:02.675Z,9.50
2022-11-29T15:11:44.249Z,9.40
2022-11-29T15:14:19.479Z,9.50
2022-11-29T15:17:03.337Z,9.40
2022-11-29T15:20:04.628Z,9.40
2022-11-29T15:22:45.940Z,9.50
2022-11-29T15:25:17.140Z,9.50
2022-11-29T15:27:52.990Z,9.50
2022-11-29T15:30:27.722Z,9.50
2022-11-29T15:32:57.202Z,9.50
2022-11-29T15:35:25.331Z,9.60
2022-11-29T15:37:54.457Z,9.50
2022-11-29T15:40:24.641Z,9.50
2022-11-29T15:42:57.854Z,9.50
2022-11-29T15:45:34.684Z,9.50
2022-11-29T15:48:18.063Z,9.60
2022-11-29T15:50:52.238Z,9.60
2022-11-29T15:53:25.554Z,9.60
2022-11-29T15:55:57.541Z,9.50
2022-11-29T15:58:28.317Z,9.30
2022-11-29T16:00:56.615Z,9.30
2022-11-29T16:03:30.755Z,9.30
2022-11-29T16:06:07.698Z,9.40
2022-11-29T16:08:38.824Z,9.30
2022-11-29T16:11:07.691Z,9.40
2022-11-29T16:13:40.397Z,9.30
2022-11-29T16:16:13.116Z,9.40
2022-11-29T16:18:44.910Z,9.40
2022-11-29T16:21:26.310Z,9.50
2022-11-29T16:23:54.863Z,9.50
2022-11-29T16:26:25.157Z,9.50
2022-11-29T16:28:54.680Z,9.50
2022-11-29T16:31:25.500Z,9.40
2022-11-29T16:33:54.929Z,9.40
2022-11-29T16:36:26.557Z,9.30
2022-11-29T16:38:57.178Z,9.40
2022-11-29T16:41:32.339Z,9.40
2022-11-29T16:44:03.226Z,9.40
2022-11-29T16:46:39.215Z,9.40
2022-11-29T16:49:38.697Z,9.30
2022-11-29T16:52:24.928Z,9.30
2022-11-29T16:54:52.853Z,9.20
2022-11-29T16:57:20.810Z,9.10
2022-11-29T16:59:48.847Z,9.20
2022-11-29T17:02:17.203Z,9.30
2022-11-29T17:04:47.029Z,9.30
2022-11-29T17:07:19.420Z,9.30
2022-11-29T17:09:47.258Z,9.20
2022-11-29T17:12:15.148Z,9.30
2022-11-29T17:14:43.035Z,9.30
2022-11-29T17:17:14.682Z,9.40
2022-11-29T17:19:42.508Z,9.40
2022-11-29T17:22:12.012Z,9.30
2022-11-29T17:24:44.903Z,9.10
2022-11-29T17:27:15.760Z,9.10
2022-11-29T17:29:43.559Z,9.20
2022-11-29T17:32:11.411Z,9.10
2022-11-29T17:34:39.238Z,9.10
2022-11-29T17:37:07.054Z,9.00
2022-11-29T17:39:36.211Z,8.80
2022-11-29T17:42:04.187Z,8.70
2022-11-29T17:44:33.877Z,8.80
2022-11-29T17:47:01.696Z,8.70
2022-11-29T17:49:29.501Z,8.70
2022-11-29T17:51:57.339Z,8.80
2022-11-29T17:54:25.414Z,8.90
2022-11-29T17:56:54.660Z,8.80
2022-11-29T17:59:22.458Z,8.90
2022-11-29T18:01:50.328Z,8.70
2022-11-29T18:04:18.285Z,8.50
2022-11-29T18:06:49.660Z,8.60
2022-11-29T18:09:19.221Z,8.70
2022-11-29T18:11:49.726Z,8.90
2022-11-29T18:14:30.910Z,8.90
2022-11-29T18:16:58.920Z,8.90
2022-11-29T18:19:27.883Z,9.00
2022-11-29T18:21:55.813Z,9.10
2022-11-29T18:24:23.591Z,8.90
2022-11-29T18:26:51.450Z,8.90
2022-11-29T18:29:20.108Z,9.00
2022-11-29T18:31:49.298Z,8.90
2022-11-29T18:34:17.228Z,9.00
2022-11-29T18:36:46.861Z,8.90
2022-11-29T18:39:16.315Z,8.80
2022-11-29T18:41:49.762Z,9.00
2022-11-29T18:44:20.115Z,9.00
2022-11-29T18:46:49.671Z,9.00
2022-11-29T18:49:18.994Z,9.10
2022-11-29T18:51:48.036Z,9.10
2022-11-29T18:54:17.207Z,9.10
2022-11-29T18:56:46.093Z,9.10
2022-11-29T18:59:16.767Z,9.10
2022-11-29T19:01:46.889Z,9.00
2022-11-29T19:04:17.889Z,9.00
2022-11-29T19:06:46.034Z,9.10
2022-11-29T19:09:15.256Z,9.20
2022-11-29T19:11:43.330Z,9.20
2022-11-29T19:14:13.031Z,9.20
2022-11-29T19:16:42.921Z,9.30
2022-11-29T19:19:11.190Z,9.20
2022-11-29T19:21:40.704Z,9.20
2022-11-29T19:24:13.910Z,9.20
2022-11-29T19:26:44.191Z,9.30
2022-11-29T19:29:12.522Z,9.30
2022-11-29T19:31:40.353Z,9.30
2022-11-29T19:34:08.296Z,9.30
2022-11-29T19:36:37.294Z,9.20
2022-11-29T19:39:06.452Z,9.20
2022-11-29T19:41:35.535Z,9.20
2022-11-29T19:44:05.284Z,9.20
2022-11-29T19:46:34.863Z,9.10
2022-11-29T19:49:03.895Z,9.10
2022-11-29T19:51:32.673Z,9.10
2022-11-29T19:54:02.527Z,9.20
2022-11-29T19:56:33.051Z,9.20
2022-11-29T19:59:01.232Z,9.30
2022-11-29T20:01:39.338Z,9.30
2022-11-29T20:04:09.127Z,9.30
2022-11-29T20:06:37.138Z,9.40
2022-11-29T20:09:06.330Z,9.30
2022-11-29T20:11:35.664Z,9.30
2022-11-29T20:14:05.515Z,9.30
2022-11-29T20:16:33.613Z,9.10
2022-11-29T20:19:01.850Z,9.10
2022-11-29T20:21:32.191Z,9.10
2022-11-29T20:24:01.481Z,9.10
2022-11-29T20:26:30.278Z,9.10
2022-11-29T20:29:00.206Z,9.10
2022-11-29T20:31:28.331Z,9.00
2022-11-29T20:33:57.961Z,9.10
2022-11-29T20:36:38.466Z,9.30
2022-11-29T20:39:17.849Z,9.20
2022-11-29T20:41:51.818Z,9.30
2022-11-29T20:44:25.166Z,9.20
2022-11-29T20:46:53.314Z,9.20
2022-11-29T20:49:21.607Z,9.20
2022-11-29T20:51:56.370Z,9.20
2022-11-29T20:54:24.273Z,9.20
2022-11-29T20:56:52.053Z,9.00
2022-11-29T20:59:21.237Z,9.10
2022-11-29T21:01:49.079Z,9.00
2022-11-29T21:04:22.941Z,9.00
2022-11-29T21:06:51.276Z,9.10
2022-11-29T21:09:19.092Z,9.00
2022-11-29T21:11:47.392Z,9.00
2022-11-29T21:14:15.684Z,9.00
2022-11-29T21:16:45.340Z,9.10
2022-11-29T21:19:19.518Z,9.20
2022-11-29T21:21:57.037Z,9.10
2022-11-29T21:24:34.500Z,9.10
2022-11-29T21:27:03.381Z,9.10
2022-11-29T21:29:31.642Z,9.10
2022-11-29T21:32:01.989Z,9.20
2022-11-29T21:34:29.843Z,9.20
2022-11-29T21:37:00.456Z,9.20
2022-11-29T21:39:32.868Z,9.20
2022-11-29T21:42:00.668Z,9.10
2022-11-29T21:44:28.524Z,9.10
2022-11-29T21:46:56.401Z,9.00
2022-11-29T21:49:25.698Z,9.00
2022-11-29T21:51:53.501Z,9.20
2022-11-29T21:54:21.284Z,9.20
2022-11-29T21:56:49.078Z,9.10
2022-11-29T21:59:16.917Z,9.00
2022-11-29T22:01:44.865Z,9.10
2022-11-29T22:04:12.784Z,9.10
2022-11-29T22:06:42.009Z,9.10
2022-11-29T22:09:10.302Z,9.20
2022-11-29T22:11:39.010Z,9.20
2022-11-29T22:14:15.123Z,9.10
2022-11-29T22:16:44.217Z,8.90
2022-11-29T22:19:13.542Z,9.00
2022-11-29T22:21:44.144Z,9.00
2022-11-29T22:24:13.324Z,9.10
2022-11-29T22:26:42.621Z,9.10
2022-11-29T22:29:10.718Z,9.10
2022-11-29T22:31:41.790Z,9.00
2022-11-29T22:34:09.776Z,9.00
2022-11-29T22:36:38.472Z,9.00
2022-11-29T22:39:09.360Z,8.90
2022-11-29T22:41:38.634Z,9.00
2022-11-29T22:44:07.361Z,9.00
2022-11-29T22:46:36.285Z,8.80
2022-11-29T22:49:04.533Z,8.80
2022-11-29T22:51:34.231Z,8.70
2022-11-29T22:54:03.465Z,8.80
2022-11-29T22:56:34.228Z,8.80
2022-11-29T22:59:02.497Z,8.90
2022-11-29T23:01:32.069Z,9.00
2022-11-29T23:04:03.782Z,9.10
2022-11-29T23:06:32.935Z,9.20
2022-11-29T23:09:05.153Z,9.10
2022-11-29T23:11:34.754Z,9.00
2022-11-29T23:14:02.620Z,9.10
2022-11-29T23:16:32.695Z,9.00
2022-11-29T23:19:01.786Z,8.90
2022-11-29T23:21:30.957Z,8.90
2022-11-29T23:24:00.774Z,8.90
2022-11-29T23:26:31.055Z,8.90
2022-11-29T23:29:00.245Z,8.90
2022-11-29T23:31:28.089Z,9.00
2022-11-29T23:33:56.060Z,9.00
2022-11-29T23:36:23.855Z,9.10
2022-11-29T23:38:51.898Z,9.10
2022-11-29T23:41:19.689Z,9.10
2022-11-29T23:43:47.576Z,9.10
2022-11-29T23:46:18.799Z,9.10
2022-11-29T23:48:46.921Z,9.10
2022-11-29T23:51:15.536Z,9.00
2022-11-29T23:53:43.549Z,9.00
2022-11-29T23:56:13.905Z,9.00
2022-11-29T23:58:42.842Z,9.00
